createdAt,value
2022-10-23T00:01:00.446Z,13.20
2022-10-23T00:03:27.516Z,13.10
2022-10-23T00:05:54.369Z,13.10
2022-10-23T00:08:21.280Z,13.10
2022-10-23T00:10:48.204Z,13.10
2022-10-23T00:13:15.047Z,13.10
2022-10-23T00:15:42.027Z,13.10
2022-10-23T00:18:08.868Z,13.10
2022-10-23T00:20:35.523Z,13.10
2022-10-23T00:23:02.297Z,13.20
2022-10-23T00:25:29.383Z,13.20
2022-10-23T00:27:59.781Z,13.20
2022-10-23T00:30:29.583Z,13.30
2022-10-23T00:32:58.529Z,13.20
2022-10-23T00:35:25.420Z,13.20
2022-10-23T00:37:52.398Z,13.30
2022-10-23T00:40:19.170Z,13.30
2022-10-23T00:42:46.134Z,13.20
2022-10-23T00:45:24.216Z,13.20
2022-10-23T00:47:51.203Z,13.20
2022-10-23T00:50:18.382Z,13.10
2022-10-23T00:52:52.468Z,13.10
2022-10-23T00:55:20.689Z,13.10
2022-10-23T00:57:48.472Z,13.10
2022-10-23T01:00:40.401Z,13.10
2022-10-23T01:03:07.288Z,13.10
2022-10-23T01:05:49.241Z,13.00
2022-10-23T01:08:41.645Z,13.10
2022-10-23T01:11:13.145Z,13.10
2022-10-23T01:13:48.386Z,13.10
2022-10-23T01:16:19.037Z,13.20
2022-10-23T01:18:51.659Z,13.20
2022-10-23T01:21:40.349Z,13.10
2022-10-23T01:24:15.042Z,13.10
2022-10-23T01:27:01.619Z,13.10
2022-10-23T01:29:38.518Z,13.10
2022-10-23T01:32:14.919Z,13.10
2022-10-23T01:34:47.178Z,13.10
2022-10-23T01:37:14.993Z,13.10
2022-10-23T01:39:46.867Z,13.10
2022-10-23T01:42:20.132Z,13.10
2022-10-23T01:44:49.823Z,13.10
2022-10-23T01:47:18.551Z,13.10
2022-10-23T01:50:06.673Z,13.10
2022-10-23T01:52:33.786Z,13.10
2022-10-23T01:55:03.626Z,13.20
2022-10-23T01:57:33.194Z,13.20
2022-10-23T02:00:04.113Z,13.20
2022-10-23T02:02:31.149Z,13.20
2022-10-23T02:05:02.650Z,13.20
2022-10-23T02:07:29.501Z,13.20
2022-10-23T02:09:56.271Z,13.30
2022-10-23T02:12:41.843Z,13.30
2022-10-23T02:15:17.804Z,13.30
2022-10-23T02:18:03.602Z,13.30
2022-10-23T02:20:40.780Z,13.30
2022-10-23T02:23:28.881Z,13.20
2022-10-23T02:25:59.877Z,13.30
2022-10-23T02:28:28.902Z,13.20
2022-10-23T02:30:59.247Z,13.20
2022-10-23T02:33:27.504Z,13.20
2022-10-23T02:35:55.440Z,13.20
2022-10-23T02:38:28.713Z,13.30
2022-10-23T02:40:55.583Z,13.20
2022-10-23T02:43:27.891Z,13.20
2022-10-23T02:46:00.280Z,13.20
2022-10-23T02:48:37.180Z,13.20
2022-10-23T02:51:20.896Z,13.20
2022-10-23T02:54:08.730Z,13.20
2022-10-23T02:56:56.447Z,13.20
2022-10-23T02:59:51.068Z,13.20
2022-10-23T03:04:59.498Z,13.20
2022-10-23T03:07:26.345Z,13.20
2022-10-23T03:10:00.032Z,13.20
2022-10-23T03:12:26.900Z,13.10
2022-10-23T03:14:53.636Z,13.10
2022-10-23T03:17:20.429Z,13.10
2022-10-23T03:19:49.443Z,13.00
2022-10-23T03:22:16.092Z,13.00
2022-10-23T03:24:42.949Z,13.10
2022-10-23T03:27:11.394Z,13.00
2022-10-23T03:29:38.375Z,13.00
2022-10-23T03:32:06.150Z,13.00
2022-10-23T03:34:32.956Z,13.00
2022-10-23T03:37:01.908Z,13.00
2022-10-23T03:39:28.799Z,12.90
2022-10-23T03:41:56.627Z,13.00
2022-10-23T03:44:23.306Z,13.00
2022-10-23T03:46:50.361Z,13.00
2022-10-23T03:49:17.169Z,13.00
2022-10-23T03:51:44.955Z,12.90
2022-10-23T03:54:11.650Z,12.90
2022-10-23T03:56:38.368Z,12.90
2022-10-23T03:59:07.387Z,12.90
2022-10-23T04:01:34.325Z,12.90
2022-10-23T04:04:01.507Z,12.90
2022-10-23T04:06:28.792Z,12.90
2022-10-23T04:08:59.931Z,12.90
2022-10-23T04:11:26.926Z,12.80
2022-10-23T04:13:53.687Z,12.80
2022-10-23T04:16:20.572Z,12.80
2022-10-23T04:18:47.431Z,12.70
2022-10-23T04:21:14.303Z,12.70
2022-10-23T04:23:41.234Z,12.70
2022-10-23T04:26:25.964Z,12.60
2022-10-23T04:28:52.852Z,12.60
2022-10-23T04:31:19.536Z,12.60
2022-10-23T04:33:46.431Z,12.60
2022-10-23T04:36:26.862Z,12.50
2022-10-23T04:38:53.603Z,12.50
2022-10-23T04:41:20.503Z,12.40
2022-10-23T04:43:47.633Z,12.40
2022-10-23T04:46:15.297Z,12.40
2022-10-23T04:48:46.533Z,12.40
2022-10-23T04:51:45.998Z,12.50
2022-10-23T04:54:37.036Z,12.40
2022-10-23T04:57:18.679Z,12.50
2022-10-23T04:59:54.992Z,12.40
2022-10-23T05:02:21.849Z,12.50
2022-10-23T05:04:49.944Z,12.50
2022-10-23T05:07:35.774Z,12.50
2022-10-23T05:10:25.980Z,12.50
2022-10-23T05:13:13.163Z,12.50
2022-10-23T05:18:35.761Z,12.30
2022-10-23T05:21:07.195Z,12.20
2022-10-23T05:23:33.946Z,12.10
2022-10-23T05:26:03.342Z,12.00
2022-10-23T05:28:31.662Z,12.00
2022-10-23T05:31:00.342Z,11.90
2022-10-23T05:33:28.626Z,11.90
2022-10-23T05:35:55.381Z,11.90
2022-10-23T05:38:22.918Z,11.80
2022-10-23T05:40:51.765Z,11.80
2022-10-23T05:43:19.945Z,11.70
2022-10-23T05:45:54.165Z,11.80
2022-10-23T05:48:41.032Z,11.80
2022-10-23T05:51:36.792Z,11.80
2022-10-23T05:54:22.755Z,12.00
2022-10-23T05:57:19.885Z,12.10
2022-10-23T05:59:51.643Z,12.20
2022-10-23T06:02:18.408Z,12.20
2022-10-23T06:04:52.581Z,12.30
2022-10-23T06:07:35.707Z,12.20
2022-10-23T06:10:05.712Z,12.20
2022-10-23T06:12:34.792Z,12.20
2022-10-23T06:15:01.585Z,12.20
2022-10-23T06:17:46.642Z,12.20
2022-10-23T06:20:13.715Z,12.30
2022-10-23T06:22:41.924Z,12.30
2022-10-23T06:25:25.427Z,12.30
2022-10-23T06:27:54.917Z,12.30
2022-10-23T06:30:24.357Z,12.40
2022-10-23T06:32:52.393Z,12.40
2022-10-23T06:35:19.221Z,12.40
2022-10-23T06:37:46.088Z,12.50
2022-10-23T06:40:18.332Z,12.50
2022-10-23T06:42:57.427Z,12.50
2022-10-23T06:45:53.526Z,12.50
2022-10-23T06:48:55.445Z,12.50
2022-10-23T06:51:29.616Z,12.50
2022-10-23T06:53:56.697Z,12.50
2022-10-23T06:56:42.752Z,12.50
2022-10-23T06:59:10.507Z,12.50
2022-10-23T07:01:38.253Z,12.60
2022-10-23T07:04:06.113Z,12.70
2022-10-23T07:06:33.374Z,12.70
2022-10-23T07:09:00.351Z,12.70
2022-10-23T07:11:45.919Z,12.80
2022-10-23T07:14:12.767Z,12.80
2022-10-23T07:16:39.999Z,12.80
2022-10-23T07:19:08.792Z,12.80
2022-10-23T07:21:38.374Z,12.90
2022-10-23T07:24:21.595Z,12.90
2022-10-23T07:26:48.653Z,13.00
2022-10-23T07:29:15.357Z,13.00
2022-10-23T07:31:44.435Z,13.00
2022-10-23T07:34:32.105Z,13.00
2022-10-23T07:37:22.001Z,13.10
2022-10-23T07:39:48.815Z,13.10
2022-10-23T07:45:48.739Z,13.20
2022-10-23T07:48:23.938Z,13.10
2022-10-23T07:51:00.947Z,13.20
2022-10-23T07:53:28.031Z,13.20
2022-10-23T07:56:01.953Z,13.20
2022-10-23T07:58:49.068Z,13.20
2022-10-23T08:01:38.344Z,13.30
2022-10-23T08:04:05.495Z,13.30
2022-10-23T08:06:35.303Z,13.20
2022-10-23T08:09:05.479Z,13.30
2022-10-23T08:11:37.187Z,13.30
2022-10-23T08:14:06.504Z,13.40
2022-10-23T08:16:34.441Z,13.40
2022-10-23T08:19:04.968Z,13.40
2022-10-23T08:21:32.389Z,13.40
2022-10-23T08:23:59.663Z,13.50
2022-10-23T08:26:29.480Z,13.60
2022-10-23T08:28:58.326Z,13.60
2022-10-23T08:31:25.915Z,13.60
2022-10-23T08:34:15.837Z,13.70
2022-10-23T08:36:44.917Z,13.70
2022-10-23T08:39:12.073Z,13.70
2022-10-23T08:41:50.673Z,13.80
2022-10-23T08:44:32.782Z,13.90
2022-10-23T08:47:17.128Z,13.90
2022-10-23T08:50:36.200Z,13.90
2022-10-23T08:53:37.019Z,13.90
2022-10-23T08:56:06.947Z,13.90
2022-10-23T08:58:39.726Z,14.00
2022-10-23T09:01:18.537Z,14.00
2022-10-23T09:03:46.318Z,14.10
2022-10-23T09:09:27.011Z,14.00
2022-10-23T09:12:07.565Z,14.00
2022-10-23T09:14:55.120Z,14.10
2022-10-23T09:17:24.940Z,14.10
2022-10-23T09:20:23.580Z,14.30
2022-10-23T09:23:01.647Z,14.30
2022-10-23T09:25:30.997Z,14.50
2022-10-23T09:28:01.385Z,14.70
2022-10-23T09:30:37.939Z,14.80
2022-10-23T09:33:24.632Z,14.80
2022-10-23T09:35:55.719Z,15.00
2022-10-23T09:38:36.376Z,15.10
2022-10-23T09:41:14.479Z,15.10
2022-10-23T09:43:41.239Z,15.10
2022-10-23T09:46:09.793Z,15.10
2022-10-23T09:48:59.848Z,15.10
2022-10-23T09:51:29.678Z,15.20
2022-10-23T09:53:57.996Z,15.20
2022-10-23T09:56:27.519Z,15.30
2022-10-23T09:58:58.584Z,15.30
2022-10-23T10:01:28.133Z,15.40
2022-10-23T10:04:03.011Z,15.60
2022-10-23T10:06:31.837Z,15.90
2022-10-23T10:09:13.351Z,16.00
2022-10-23T10:12:05.847Z,16.20
2022-10-23T10:14:47.948Z,16.40
2022-10-23T10:17:18.114Z,16.60
2022-10-23T10:20:05.462Z,16.70
2022-10-23T10:22:46.251Z,16.90
2022-10-23T10:25:27.965Z,17.10
2022-10-23T10:28:02.888Z,17.20
2022-10-23T10:30:44.794Z,17.50
2022-10-23T10:33:30.129Z,17.50
2022-10-23T10:36:18.683Z,17.60
2022-10-23T10:38:50.655Z,17.70
2022-10-23T10:41:28.625Z,17.70
2022-10-23T10:44:01.710Z,17.60
2022-10-23T10:46:36.668Z,17.50
2022-10-23T10:49:15.006Z,17.40
2022-10-23T10:51:59.873Z,17.30
2022-10-23T10:54:32.289Z,17.30
2022-10-23T10:57:00.187Z,17.30
2022-10-23T10:59:37.710Z,17.50
2022-10-23T11:02:29.164Z,17.60
2022-10-23T11:05:18.703Z,17.90
2022-10-23T11:08:13.800Z,18.00
2022-10-23T11:10:48.694Z,18.10
2022-10-23T11:13:34.215Z,18.20
2022-10-23T11:16:04.874Z,18.30
2022-10-23T11:18:31.756Z,18.30
2022-10-23T11:21:08.523Z,18.00
2022-10-23T11:23:40.700Z,18.00
2022-10-23T11:26:28.768Z,18.10
2022-10-23T11:29:13.396Z,18.20
2022-10-23T11:31:44.155Z,18.60
2022-10-23T11:34:28.675Z,18.60
2022-10-23T11:36:59.286Z,18.90
2022-10-23T11:39:26.787Z,19.50
2022-10-23T11:42:27.193Z,19.80
2022-10-23T11:44:53.933Z,19.80
2022-10-23T11:47:27.065Z,19.80
2022-10-23T11:50:09.051Z,19.70
2022-10-23T11:52:50.515Z,20.00
2022-10-23T11:55:24.865Z,20.30
2022-10-23T11:58:04.929Z,20.80
2022-10-23T12:00:32.889Z,21.00
2022-10-23T12:02:59.596Z,21.10
2022-10-23T12:05:34.830Z,21.00
2022-10-23T12:08:02.340Z,20.90
2022-10-23T12:10:36.576Z,20.70
2022-10-23T12:13:05.422Z,20.50
2022-10-23T12:15:32.955Z,20.40
2022-10-23T12:18:14.526Z,20.60
2022-10-23T12:20:52.356Z,20.70
2022-10-23T12:23:23.589Z,20.90
2022-10-23T12:26:02.475Z,20.90
2022-10-23T12:28:56.799Z,21.00
2022-10-23T12:31:38.934Z,21.20
2022-10-23T12:34:23.829Z,21.70
2022-10-23T12:37:17.517Z,22.10
2022-10-23T12:39:44.330Z,22.00
2022-10-23T12:42:20.960Z,22.00
2022-10-23T12:45:01.443Z,22.20
2022-10-23T12:47:30.337Z,22.60
2022-10-23T12:49:57.125Z,22.60
2022-10-23T12:52:25.219Z,22.50
2022-10-23T12:54:52.029Z,22.20
2022-10-23T12:57:26.913Z,21.80
2022-10-23T12:59:58.025Z,21.70
2022-10-23T13:02:29.322Z,21.50
2022-10-23T13:04:57.742Z,21.40
2022-10-23T13:07:26.708Z,21.40
2022-10-23T13:09:55.576Z,21.20
2022-10-23T13:12:33.995Z,21.00
2022-10-23T13:15:21.351Z,20.80
2022-10-23T13:18:00.468Z,20.50
2022-10-23T13:20:31.505Z,20.40
2022-10-23T13:23:18.523Z,20.30
2022-10-23T13:25:58.845Z,20.40
2022-10-23T13:28:35.192Z,20.40
2022-10-23T13:31:12.363Z,20.50
2022-10-23T13:33:42.903Z,20.50
2022-10-23T13:36:16.638Z,20.50
2022-10-23T13:38:45.921Z,20.40
2022-10-23T13:41:18.042Z,20.40
2022-10-23T13:43:45.853Z,20.30
2022-10-23T13:46:16.682Z,20.20
2022-10-23T13:48:44.875Z,20.20
2022-10-23T13:51:28.054Z,20.20
2022-10-23T13:53:56.600Z,20.20
2022-10-23T13:56:25.744Z,20.30
2022-10-23T13:58:52.668Z,20.30
2022-10-23T14:02:23.899Z,20.30
2022-10-23T14:04:50.938Z,20.20
2022-10-23T14:07:17.949Z,20.20
2022-10-23T14:09:44.898Z,20.10
2022-10-23T14:12:12.350Z,20.10
2022-10-23T14:14:39.241Z,20.00
2022-10-23T14:17:05.981Z,19.90
2022-10-23T14:22:02.430Z,19.90
2022-10-23T14:24:29.204Z,19.90
2022-10-23T14:26:57.486Z,19.90
2022-10-23T14:29:24.611Z,19.90
2022-10-23T14:31:51.622Z,20.00
2022-10-23T14:34:19.514Z,20.00
2022-10-23T14:36:50.376Z,20.00
2022-10-23T14:39:23.494Z,20.00
2022-10-23T14:42:01.389Z,20.00
2022-10-23T14:44:28.310Z,20.00
2022-10-23T14:46:55.014Z,20.00
2022-10-23T14:49:21.831Z,19.90
2022-10-23T14:51:49.664Z,19.90
2022-10-23T14:54:16.431Z,19.80
2022-10-23T14:56:43.152Z,19.70
2022-10-23T14:59:10.810Z,19.70
2022-10-23T15:01:47.226Z,19.60
2022-10-23T15:04:15.356Z,19.60
2022-10-23T15:06:42.320Z,19.60
2022-10-23T15:09:10.146Z,19.50
2022-10-23T15:11:36.913Z,19.30
2022-10-23T15:14:13.199Z,19.30
2022-10-23T15:16:42.777Z,19.30
2022-10-23T15:19:17.146Z,19.20
2022-10-23T15:21:46.290Z,19.20
2022-10-23T15:24:13.102Z,19.20
2022-10-23T15:26:43.319Z,19.10
2022-10-23T15:29:11.111Z,19.10
2022-10-23T15:31:41.099Z,19.00
2022-10-23T15:34:09.626Z,19.00
2022-10-23T15:36:36.662Z,19.00
2022-10-23T15:39:21.440Z,18.90
2022-10-23T15:41:49.900Z,18.80
2022-10-23T15:44:17.295Z,18.80
2022-10-23T15:46:44.283Z,18.80
2022-10-23T15:49:11.086Z,18.60
2022-10-23T15:51:38.137Z,18.50
2022-10-23T15:54:11.215Z,18.40
2022-10-23T15:56:37.966Z,17.80
2022-10-23T15:59:04.844Z,16.80
2022-10-23T16:01:31.829Z,16.30
2022-10-23T16:03:59.613Z,16.00
2022-10-23T16:06:26.581Z,15.80
2022-10-23T16:11:22.136Z,15.60
2022-10-23T16:13:48.961Z,15.50
2022-10-23T16:16:16.308Z,15.40
2022-10-23T16:18:43.976Z,15.50
2022-10-23T16:21:22.069Z,15.40
2022-10-23T16:23:50.577Z,15.40
2022-10-23T16:26:17.592Z,15.40
2022-10-23T16:28:46.303Z,15.30
2022-10-23T16:31:20.296Z,15.40
2022-10-23T16:33:48.211Z,15.40
2022-10-23T16:36:17.318Z,15.30
2022-10-23T16:39:10.497Z,15.30
2022-10-23T16:41:56.323Z,15.30
2022-10-23T16:44:28.004Z,15.30
2022-10-23T16:46:59.336Z,15.30
2022-10-23T16:49:26.329Z,15.30
2022-10-23T16:51:53.111Z,15.30
2022-10-23T16:54:22.453Z,15.30
2022-10-23T16:56:51.909Z,15.30
2022-10-23T16:59:18.779Z,15.30
2022-10-23T17:01:45.865Z,15.20
2022-10-23T17:04:12.601Z,15.20
2022-10-23T17:06:39.355Z,15.20
2022-10-23T17:09:06.112Z,15.20
2022-10-23T17:11:37.739Z,15.20
2022-10-23T17:14:11.263Z,15.10
2022-10-23T17:16:40.706Z,15.10
2022-10-23T17:19:43.366Z,15.10
2022-10-23T17:22:21.532Z,15.00
2022-10-23T17:36:20.057Z,14.90
2022-10-23T17:38:47.037Z,14.90
2022-10-23T17:41:17.673Z,14.90
2022-10-23T17:43:44.792Z,14.80
2022-10-23T17:46:18.324Z,14.80
2022-10-23T17:48:45.508Z,14.80
2022-10-23T17:51:22.663Z,14.70
2022-10-23T17:53:56.467Z,14.70
2022-10-23T17:56:27.253Z,14.70
2022-10-23T17:58:55.549Z,14.70
2022-10-23T18:01:26.636Z,14.70
2022-10-23T18:03:56.882Z,14.70
2022-10-23T18:06:29.727Z,14.70
2022-10-23T18:08:56.844Z,14.80
2022-10-23T18:11:24.517Z,14.80
2022-10-23T18:13:51.608Z,14.80
2022-10-23T18:16:21.636Z,14.80
2022-10-23T18:18:48.939Z,14.80
2022-10-23T18:21:18.280Z,14.80
2022-10-23T18:23:45.244Z,14.80
2022-10-23T18:26:17.310Z,14.80
2022-10-23T18:28:48.391Z,14.80
2022-10-23T18:31:15.569Z,14.80
2022-10-23T18:33:42.490Z,14.80
2022-10-23T18:36:20.613Z,14.80
2022-10-23T18:38:47.955Z,14.90
2022-10-23T18:41:14.949Z,14.90
2022-10-23T18:43:44.863Z,15.00
2022-10-23T18:46:14.979Z,15.00
2022-10-23T18:48:45.537Z,15.10
2022-10-23T18:51:23.193Z,15.10
2022-10-23T18:53:54.018Z,15.20
2022-10-23T18:57:18.704Z,15.20
2022-10-23T19:00:10.267Z,15.10
2022-10-23T19:02:37.865Z,15.20
2022-10-23T19:05:13.333Z,15.20
2022-10-23T19:08:07.854Z,15.20
2022-10-23T19:10:46.103Z,15.10
2022-10-23T19:13:29.581Z,15.10
2022-10-23T19:16:40.139Z,15.10
2022-10-23T19:28:37.584Z,15.00
2022-10-23T19:31:17.668Z,15.00
2022-10-23T19:33:44.538Z,15.00
2022-10-23T19:36:14.366Z,15.00
2022-10-23T19:38:51.010Z,15.00
2022-10-23T19:41:18.719Z,15.00
2022-10-23T19:43:49.473Z,15.00
2022-10-23T19:46:16.236Z,15.00
2022-10-23T19:48:44.382Z,15.00
2022-10-23T19:51:14.397Z,14.90
2022-10-23T19:53:42.871Z,14.90
2022-10-23T19:56:10.808Z,14.90
2022-10-23T19:58:37.723Z,14.90
2022-10-23T20:01:11.726Z,14.90
2022-10-23T20:03:40.123Z,14.90
2022-10-23T20:06:13.905Z,15.00
2022-10-23T20:08:44.085Z,15.00
2022-10-23T20:11:20.840Z,15.10
2022-10-23T20:13:50.743Z,15.20
2022-10-23T20:16:25.374Z,15.20
2022-10-23T20:18:52.362Z,15.20
2022-10-23T20:21:19.349Z,15.30
2022-10-23T20:23:46.293Z,15.30
2022-10-23T20:26:18.202Z,15.20
2022-10-23T20:28:48.623Z,15.20
2022-10-23T20:31:17.204Z,15.20
2022-10-23T20:33:50.210Z,15.20
2022-10-23T20:36:24.397Z,15.20
2022-10-23T20:38:51.350Z,15.10
2022-10-23T20:41:18.203Z,15.20
2022-10-23T20:43:47.674Z,15.20
2022-10-23T20:46:17.414Z,15.10
2022-10-23T20:48:47.747Z,15.20
2022-10-23T20:51:18.785Z,15.20
2022-10-23T20:53:45.885Z,15.20
2022-10-23T20:56:14.333Z,15.20
2022-10-23T20:58:41.007Z,15.20
2022-10-23T21:01:12.436Z,15.10
2022-10-23T21:03:39.340Z,15.10
2022-10-23T21:06:08.041Z,15.10
2022-10-23T21:08:35.117Z,15.10
2022-10-23T21:11:01.858Z,15.00
2022-10-23T21:13:28.672Z,15.00
2022-10-23T21:15:55.654Z,15.00
2022-10-23T21:18:27.513Z,15.00
2022-10-23T21:21:08.256Z,15.00
2022-10-23T21:23:35.638Z,14.90
2022-10-23T21:26:06.223Z,14.80
2022-10-23T21:28:34.307Z,14.70
2022-10-23T21:31:05.430Z,14.70
2022-10-23T21:33:32.160Z,14.70
2022-10-23T21:36:12.782Z,14.60
2022-10-23T21:38:41.256Z,14.60
2022-10-23T21:41:08.699Z,14.60
2022-10-23T21:43:35.357Z,14.50
2022-10-23T21:46:06.286Z,14.50
2022-10-23T21:48:33.245Z,14.50
2022-10-23T21:51:00.260Z,14.40
2022-10-23T21:53:27.100Z,14.30
2022-10-23T21:55:53.745Z,14.30
2022-10-23T21:58:20.372Z,14.30
2022-10-23T22:00:47.033Z,14.30
2022-10-23T22:03:13.616Z,14.20
2022-10-23T22:05:40.230Z,14.20
2022-10-23T22:08:07.064Z,14.20
2022-10-23T22:10:34.239Z,14.10
2022-10-23T22:13:00.918Z,14.10
2022-10-23T22:15:27.572Z,14.10
2022-10-23T22:17:54.241Z,14.10
2022-10-23T22:20:20.918Z,14.10
2022-10-23T22:22:47.693Z,14.10
2022-10-23T22:25:14.491Z,14.00
2022-10-23T22:27:41.325Z,14.00
2022-10-23T22:30:08.308Z,14.00
2022-10-23T22:32:35.242Z,13.90
2022-10-23T22:35:02.036Z,13.90
2022-10-23T22:37:28.686Z,13.90
2022-10-23T22:39:55.472Z,13.80
2022-10-23T22:42:22.067Z,13.90
2022-10-23T22:44:48.841Z,13.90
2022-10-23T22:47:15.719Z,13.90
2022-10-23T22:49:42.357Z,13.90
2022-10-23T22:52:09.344Z,13.90
2022-10-23T22:54:36.027Z,13.90
2022-10-23T22:57:02.803Z,13.90
2022-10-23T22:59:29.585Z,13.90
2022-10-23T23:01:56.227Z,13.90
2022-10-23T23:04:39.217Z,13.90
2022-10-23T23:07:07.971Z,13.90
2022-10-23T23:09:38.612Z,13.90
2022-10-23T23:12:05.368Z,13.80
2022-10-23T23:14:32.041Z,13.80
2022-10-23T23:16:59.005Z,13.90
2022-10-23T23:19:27.180Z,13.80
2022-10-23T23:21:57.761Z,13.70
2022-10-23T23:24:24.684Z,13.80
2022-10-23T23:26:51.398Z,13.70
2022-10-23T23:29:18.213Z,13.70
2022-10-23T23:31:44.890Z,13.70
2022-10-23T23:34:11.513Z,13.70
2022-10-23T23:36:38.405Z,13.70
2022-10-23T23:41:37.427Z,13.70
2022-10-23T23:44:04.261Z,13.70
2022-10-23T23:46:30.899Z,13.60
2022-10-23T23:48:57.575Z,13.60
2022-10-23T23:51:24.469Z,13.60
2022-10-23T23:53:51.283Z,13.60
2022-10-23T23:56:17.952Z,13.60
2022-10-23T23:58:44.695Z,13.50
